Time;durP1;ratioP1;P1;durP2;ratioP2;P2;SDS_P1;SDS_P2;PMS_P1;PMS_P2;Temp;Humidity;BMP_temperature;BMP_pressure;BME280_temperature;BME280_humidity;BME280_pressure;Samples;Min_cycle;Max_cycle;Signal;HPM_P1;HPM_P2
2023/02/19 00:01:19;;;;;;;;;;;;;;;;;;4978256;28;19910;-77
2023/02/19 00:03:45;;;;;;;;;;;;;;;;;;4977410;28;19921;-77
2023/02/19 00:06:11;;;;;;;;;;;;;;;;;;4995344;28;19910;-78
2023/02/19 00:08:37;;;;;;;;;;;;;;;;;;4976861;28;19917;-78
2023/02/19 00:11:03;;;;;;;;;;;;;;;;;;4996675;28;19909;-77
2023/02/19 00:13:29;;;;;;;;;;;;;;;;;;4996092;28;19918;-77
2023/02/19 00:15:55;;;;;;;;;;;;;;;;;;4995252;28;20382;-77
2023/02/19 00:18:21;;;;;;;;;;;;;;;;;;4994415;28;19910;-77
2023/02/19 00:20:47;;;;;;;;;;;;;;;;;;4993518;28;20277;-77
2023/02/19 00:23:13;;;;;;;;;;;;;;;;;;4978654;28;19910;-77
2023/02/19 00:25:38;;;;;;;;;;;;;;;;;;4994461;28;19917;-77
2023/02/19 00:28:04;;;;;;;;;;;;;;;;;;4994219;28;20411;-77
2023/02/19 00:30:30;;;;;;;;;;;;;;;;;;4995778;28;19964;-76
2023/02/19 00:32:56;;;;;;;;;;;;;;;;;;4977544;28;19914;-77
2023/02/19 00:35:22;;;;;;;;;;;;;;;;;;4995260;28;20769;-77
2023/02/19 00:37:48;;;;;;;;;;;;;;;;;;4995096;28;19910;-78
2023/02/19 00:40:14;;;;;;;;;;;;;;;;;;4995015;28;20324;-77
2023/02/19 00:42:40;;;;;;;;;;;;;;;;;;4977358;28;19914;-78
2023/02/19 00:45:06;;;;;;;;;;;;;;;;;;4979197;28;19910;-77
2023/02/19 00:47:32;;;;;;;;;;;;;;;;;;4998567;28;20370;-77
2023/02/19 00:49:57;;;;;;;;;;;;;;;;;;4981925;28;19917;-77
2023/02/19 00:52:23;;;;;;;;;;;;;;;;;;4999200;28;19910;-77
2023/02/19 00:54:49;;;;;;;;;;;;;;;;;;4999330;28;19910;-76
2023/02/19 00:57:15;;;;;;;;;;;;;;;;;;4998395;28;19918;-77
2023/02/19 00:59:41;;;;;;;;;;;;;;;;;;4998909;28;20434;-77
2023/02/19 01:02:07;;;;;;;;;;;;;;;;;;4997408;28;19909;-78
2023/02/19 01:04:33;;;;;;;;;;;;;;;;;;4997557;28;19910;-77
2023/02/19 01:06:59;;;;;;;;;;;;;;;;;;4998983;28;19917;-77
2023/02/19 01:09:25;;;;;;;;;;;;;;;;;;4979701;28;19914;-78
2023/02/19 01:11:50;;;;;;;;;;;;;;;;;;4998597;28;19940;-77
2023/02/19 01:14:16;;;;;;;;;;;;;;;;;;4999359;28;19936;-79
2023/02/19 01:16:42;;;;;;;;;;;;;;;;;;4981335;28;19941;-78
2023/02/19 01:19:08;;;;;;;;;;;;;;;;;;4980543;28;19916;-77
2023/02/19 01:21:34;;;;;;;;;;;;;;;;;;4998401;28;19910;-77
2023/02/19 01:24:00;;;;;;;;;;;;;;;;;;4998538;28;19910;-77
2023/02/19 01:26:26;;;;;;;;;;;;;;;;;;4998454;28;19914;-77
2023/02/19 01:28:52;;;;;;;;;;;;;;;;;;4980912;28;19910;-77
2023/02/19 01:31:18;;;;;;;;;;;;;;;;;;4998696;28;19917;-78
2023/02/19 01:33:44;;;;;;;;;;;;;;;;;;4979349;28;19914;-77
2023/02/19 01:36:10;;;;;;;;;;;;;;;;;;4979382;28;19932;-76
2023/02/19 01:38:36;;;;;;;;;;;;;;;;;;4978441;28;19910;-77
2023/02/19 01:41:02;;;;;;;;;;;;;;;;;;4980331;28;20421;-77
2023/02/19 01:43:28;;;;;;;;;;;;;;;;;;4980840;28;20307;-78
2023/02/19 01:45:54;;;;;;;;;;;;;;;;;;4996732;28;19957;-78
2023/02/19 01:48:20;;;;;;;;;;;;;;;;;;4978881;28;19909;-78
2023/02/19 01:50:46;;;;;;;;;;;;;;;;;;4996734;28;20359;-77
2023/02/19 01:53:12;;;;;;;;;;;;;;;;;;4980976;28;19914;-77
2023/02/19 01:55:37;;;;;;;;;;;;;;;;;;4979901;28;19921;-77
2023/02/19 01:58:03;;;;;;;;;;;;;;;;;;4980084;28;19910;-76
2023/02/19 02:00:29;;;;;;;;;;;;;;;;;;4998198;28;19910;-77
2023/02/19 02:02:55;;;;;;;;;;;;;;;;;;4980456;28;19937;-76
2023/02/19 02:05:21;;;;;;;;;;;;;;;;;;4998074;28;19945;-77
2023/02/19 02:10:31;;;;;;;;;;;;;;;;;;4997900;28;20435;-77
2023/02/19 02:12:57;;;;;;;;;;;;;;;;;;5492332;23;19948;-81
2023/02/19 02:15:23;;;;;;;;;;;;;;;;;;5002345;28;19936;-82
2023/02/19 02:17:49;;;;;;;;;;;;;;;;;;5003216;28;19909;-83
2023/02/19 02:20:15;;;;;;;;;;;;;;;;;;5003249;28;19898;-83
2023/02/19 02:22:41;;;;;;;;;;;;;;;;;;5002806;28;19985;-83
2023/02/19 02:25:08;;;;;;;;;;;;;;;;;;5019716;28;19914;-83
2023/02/19 02:27:35;;;;;;;;;;;;;;;;;;5019597;28;19941;-83
2023/02/19 02:30:01;;;;;;;;;;;;;;;;;;5018903;28;19921;-82
2023/02/19 02:32:27;;;;;;;;;;;;;;;;;;5018984;28;19914;-82
2023/02/19 02:34:53;;;;;;;;;;;;;;;;;;5002719;28;19937;-83
2023/02/19 02:37:20;;;;;;;;;;;;;;;;;;5018706;28;19917;-83
2023/02/19 02:39:47;;;;;;;;;;;;;;;;;;5002772;28;19897;-83
2023/02/19 02:42:28;;;;;;;;;;;;;;;;;;5002297;28;19965;-82
2023/02/19 02:47:43;;;;;;;;;;;;;;;;;;6059262;23;19927;-82
2023/02/19 02:50:10;;;;;;;;;;;;;;;;;;5018979;28;19902;-82
2023/02/19 02:55:21;;;;;;;;;;;;;;;;;;5019760;28;19909;-82
2023/02/19 02:57:47;;;;;;;;;;;;;;;;;;5019187;28;19898;-83
2023/02/19 03:00:14;;;;;;;;;;;;;;;;;;5019639;28;19898;-82
2023/02/19 03:02:40;;;;;;;;;;;;;;;;;;5018749;28;19921;-81
2023/02/19 03:07:51;;;;;;;;;;;;;;;;;;5018702;28;19921;-82
2023/02/19 03:10:17;;;;;;;;;;;;;;;;;;5018738;28;19898;-82
2023/02/19 03:20:58;;;;;;;;;;;;;;;;;;5019368;28;19913;-82
2023/02/19 03:26:02;;;;;;;;;;;;;;;;;;5019456;28;19961;-83
2023/02/19 03:26:14;;;;;;;;;;;;;;;;;;5019358;28;19921;-82
2023/02/19 03:31:24;;;;;;;;;;;;;;;;;;5019665;28;19948;-82
2023/02/19 03:33:50;;;;;;;;;;;;;;;;;;5018554;28;19910;-83
2023/02/19 03:36:17;;;;;;;;;;;;;;;;;;5018893;28;19898;-83
2023/02/19 03:38:43;;;;;;;;;;;;;;;;;;5018652;28;19921;-83
2023/02/19 03:41:09;;;;;;;;;;;;;;;;;;5018453;28;19898;-82
2023/02/19 03:43:35;;;;;;;;;;;;;;;;;;5018720;28;19913;-83
2023/02/19 03:46:01;;;;;;;;;;;;;;;;;;5018241;28;19918;-83
2023/02/19 03:48:27;;;;;;;;;;;;;;;;;;5018234;28;19933;-82
2023/02/19 03:50:53;;;;;;;;;;;;;;;;;;5018230;28;19898;-83
2023/02/19 03:53:19;;;;;;;;;;;;;;;;;;5018836;28;19973;-82
2023/02/19 03:55:45;;;;;;;;;;;;;;;;;;5018254;28;19898;-82
2023/02/19 03:58:12;;;;;;;;;;;;;;;;;;5016930;28;19952;-82
2023/02/19 04:00:38;;;;;;;;;;;;;;;;;;5018396;28;19898;-82
2023/02/19 04:03:04;;;;;;;;;;;;;;;;;;5017608;28;19904;-82
2023/02/19 04:05:30;;;;;;;;;;;;;;;;;;5015453;28;19933;-82
2023/02/19 04:07:56;;;;;;;;;;;;;;;;;;5014895;28;20386;-82
2023/02/19 04:10:22;;;;;;;;;;;;;;;;;;5013300;28;19909;-82
2023/02/19 04:12:48;;;;;;;;;;;;;;;;;;5016387;28;19929;-82
2023/02/19 04:15:14;;;;;;;;;;;;;;;;;;5015849;28;19910;-81
2023/02/19 04:17:40;;;;;;;;;;;;;;;;;;5017187;28;19914;-81
2023/02/19 04:20:06;;;;;;;;;;;;;;;;;;5018820;28;19978;-81
2023/02/19 04:22:32;;;;;;;;;;;;;;;;;;5020999;28;19909;-81
2023/02/19 04:24:59;;;;;;;;;;;;;;;;;;5021487;28;19921;-82
2023/02/19 04:27:25;;;;;;;;;;;;;;;;;;5021093;28;20012;-82
2023/02/19 04:29:53;;;;;;;;;;;;;;;;;;5021135;28;19914;-81
2023/02/19 04:32:19;;;;;;;;;;;;;;;;;;5020265;28;19917;-82
2023/02/19 04:34:45;;;;;;;;;;;;;;;;;;5020107;28;19910;-82
2023/02/19 04:37:11;;;;;;;;;;;;;;;;;;5021718;28;19898;-83
2023/02/19 04:39:37;;;;;;;;;;;;;;;;;;5021128;28;19909;-82
2023/02/19 04:42:04;;;;;;;;;;;;;;;;;;5021846;28;19921;-83
2023/02/19 04:44:31;;;;;;;;;;;;;;;;;;5021907;28;19969;-83
2023/02/19 04:46:57;;;;;;;;;;;;;;;;;;5021394;28;19909;-82
2023/02/19 04:49:23;;;;;;;;;;;;;;;;;;5020831;28;19993;-81
2023/02/19 04:51:49;;;;;;;;;;;;;;;;;;5021428;28;19914;-82
2023/02/19 04:54:15;;;;;;;;;;;;;;;;;;5020743;28;19918;-81
2023/02/19 04:56:41;;;;;;;;;;;;;;;;;;5021139;28;19958;-81
2023/02/19 04:59:08;;;;;;;;;;;;;;;;;;5020669;28;19928;-82
2023/02/19 05:01:34;;;;;;;;;;;;;;;;;;5020825;28;19914;-82
2023/02/19 05:04:00;;;;;;;;;;;;;;;;;;5020582;28;19960;-82
2023/02/19 05:06:26;;;;;;;;;;;;;;;;;;5020740;28;19914;-82
2023/02/19 05:08:52;;;;;;;;;;;;;;;;;;5020044;28;20243;-81
2023/02/19 05:11:18;;;;;;;;;;;;;;;;;;5020690;28;19913;-82
2023/02/19 05:13:44;;;;;;;;;;;;;;;;;;5020439;28;19936;-82
2023/02/19 05:16:12;;;;;;;;;;;;;;;;;;5020275;28;19956;-82
2023/02/19 05:18:39;;;;;;;;;;;;;;;;;;5021151;28;19973;-82
2023/02/19 05:21:05;;;;;;;;;;;;;;;;;;5020977;28;19921;-82
2023/02/19 05:23:31;;;;;;;;;;;;;;;;;;5020090;28;19966;-81
2023/02/19 05:25:58;;;;;;;;;;;;;;;;;;5020356;28;19913;-82
2023/02/19 05:28:27;;;;;;;;;;;;;;;;;;5020033;28;19914;-82
2023/02/19 05:30:53;;;;;;;;;;;;;;;;;;5018958;28;19906;-81
2023/02/19 05:33:21;;;;;;;;;;;;;;;;;;5019338;28;19918;-81
2023/02/19 05:35:48;;;;;;;;;;;;;;;;;;5019563;28;19949;-82
2023/02/19 05:38:15;;;;;;;;;;;;;;;;;;5020150;28;19961;-82
2023/02/19 05:40:41;;;;;;;;;;;;;;;;;;5019495;28;19910;-82
2023/02/19 05:43:07;;;;;;;;;;;;;;;;;;5019853;28;19921;-81
2023/02/19 05:45:33;;;;;;;;;;;;;;;;;;5019151;28;19910;-82
2023/02/19 05:47:59;;;;;;;;;;;;;;;;;;5019371;28;19914;-82
2023/02/19 05:50:25;;;;;;;;;;;;;;;;;;5019201;28;19914;-82
2023/02/19 05:52:51;;;;;;;;;;;;;;;;;;5018782;28;19928;-82
2023/02/19 05:55:18;;;;;;;;;;;;;;;;;;5018006;28;19952;-81
2023/02/19 05:57:44;;;;;;;;;;;;;;;;;;5018514;28;19898;-82
2023/02/19 06:00:10;;;;;;;;;;;;;;;;;;5015160;28;19974;-81
2023/02/19 06:02:37;;;;;;;;;;;;;;;;;;5015116;28;19917;-81
2023/02/19 06:05:03;;;;;;;;;;;;;;;;;;5015407;28;19910;-81
2023/02/19 06:07:29;;;;;;;;;;;;;;;;;;5014911;28;19910;-81
2023/02/19 06:09:55;;;;;;;;;;;;;;;;;;5015501;28;19910;-81
2023/02/19 06:12:22;;;;;;;;;;;;;;;;;;5019258;28;19914;-82
2023/02/19 06:14:48;;;;;;;;;;;;;;;;;;5011797;28;19897;-81
2023/02/19 06:17:14;;;;;;;;;;;;;;;;;;5012510;28;19961;-80
2023/02/19 06:19:40;;;;;;;;;;;;;;;;;;5019019;28;19929;-79
2023/02/19 06:22:06;;;;;;;;;;;;;;;;;;5019845;28;19934;-83
2023/02/19 06:24:32;;;;;;;;;;;;;;;;;;5019196;28;19937;-79
2023/02/19 06:26:58;;;;;;;;;;;;;;;;;;5019991;28;19932;-80
2023/02/19 06:29:24;;;;;;;;;;;;;;;;;;5020268;28;19918;-82
2023/02/19 06:31:50;;;;;;;;;;;;;;;;;;5019906;28;19898;-80
2023/02/19 06:34:17;;;;;;;;;;;;;;;;;;5020415;28;19909;-81
2023/02/19 06:36:43;;;;;;;;;;;;;;;;;;5019875;28;19906;-81
2023/02/19 06:39:09;;;;;;;;;;;;;;;;;;5020258;28;19921;-81
2023/02/19 06:41:35;;;;;;;;;;;;;;;;;;5019602;28;19898;-81
2023/02/19 06:44:01;;;;;;;;;;;;;;;;;;5019809;28;19977;-81
2023/02/19 06:46:28;;;;;;;;;;;;;;;;;;5020250;28;19929;-81
2023/02/19 06:48:54;;;;;;;;;;;;;;;;;;5019548;28;19910;-80
2023/02/19 06:51:25;;;;;;;;;;;;;;;;;;5020218;28;19953;-81
2023/02/19 06:53:51;;;;;;;;;;;;;;;;;;5020117;28;19985;-80
2023/02/19 06:56:17;;;;;;;;;;;;;;;;;;5019461;28;19898;-81
2023/02/19 06:58:43;;;;;;;;;;;;;;;;;;5019977;28;19898;-81
2023/02/19 07:01:09;;;;;;;;;;;;;;;;;;5019568;28;19905;-81
2023/02/19 07:03:35;;;;;;;;;;;;;;;;;;5019534;28;19957;-80
2023/02/19 07:06:01;;;;;;;;;;;;;;;;;;5019657;28;19898;-82
2023/02/19 07:08:27;;;;;;;;;;;;;;;;;;5031993;23;19910;-81
2023/02/19 07:10:54;;;;;;;;;;;;;;;;;;5003484;28;19929;-81
2023/02/19 07:13:20;;;;;;;;;;;;;;;;;;5003120;28;19906;-81
2023/02/19 07:15:46;;;;;;;;;;;;;;;;;;5003001;28;19977;-81
2023/02/19 07:18:12;;;;;;;;;;;;;;;;;;5019671;28;19898;-81
2023/02/19 07:20:38;;;;;;;;;;;;;;;;;;5002839;28;19964;-80
2023/02/19 07:23:04;;;;;;;;;;;;;;;;;;5002929;28;19898;-81
2023/02/19 07:25:30;;;;;;;;;;;;;;;;;;5003002;28;19905;-82
2023/02/19 07:27:56;;;;;;;;;;;;;;;;;;5002752;28;19898;-83
2023/02/19 07:30:22;;;;;;;;;;;;;;;;;;5002843;28;19973;-83
2023/02/19 07:32:48;;;;;;;;;;;;;;;;;;5019597;28;19913;-80
2023/02/19 07:35:14;;;;;;;;;;;;;;;;;;5002447;28;19965;-80
2023/02/19 07:37:40;;;;;;;;;;;;;;;;;;5002792;28;19898;-82
2023/02/19 07:40:06;;;;;;;;;;;;;;;;;;5002879;28;19914;-81
2023/02/19 07:42:32;;;;;;;;;;;;;;;;;;5018967;28;19902;-82
2023/02/19 07:44:58;;;;;;;;;;;;;;;;;;5002458;28;20058;-80
2023/02/19 07:47:23;;;;;;;;;;;;;;;;;;5002548;28;19898;-81
2023/02/19 07:49:49;;;;;;;;;;;;;;;;;;5002468;28;19937;-82
2023/02/19 07:52:15;;;;;;;;;;;;;;;;;;5019105;28;19898;-81
2023/02/19 07:54:41;;;;;;;;;;;;;;;;;;5001654;28;19910;-81
2023/02/19 07:57:07;;;;;;;;;;;;;;;;;;5002582;28;19933;-82
2023/02/19 07:59:33;;;;;;;;;;;;;;;;;;5019309;28;19905;-83
2023/02/19 08:15:07;;;;;;;;;;;;;;;;;;4976610;28;20049;-77
2023/02/19 08:17:33;;;;;;;;;;;;;;;;;;4976791;28;20004;-78
2023/02/19 08:19:59;;;;;;;;;;;;;;;;;;4975110;28;19917;-77
2023/02/19 08:22:25;;;;;;;;;;;;;;;;;;4976306;28;19910;-77
2023/02/19 08:24:51;;;;;;;;;;;;;;;;;;4976170;28;20338;-77
2023/02/19 08:27:17;;;;;;;;;;;;;;;;;;4974421;28;19910;-76
2023/02/19 08:29:42;;;;;;;;;;;;;;;;;;4976362;28;19953;-78
2023/02/19 08:32:08;;;;;;;;;;;;;;;;;;4975527;28;20279;-76
2023/02/19 08:34:34;;;;;;;;;;;;;;;;;;4974964;28;19960;-77
2023/02/19 08:37:00;;;;;;;;;;;;;;;;;;4976182;28;19910;-77
2023/02/19 08:39:26;;;;;;;;;;;;;;;;;;4975713;28;20398;-77
2023/02/19 08:41:52;;;;;;;;;;;;;;;;;;4976181;28;19914;-77
2023/02/19 08:44:18;;;;;;;;;;;;;;;;;;4976738;28;19949;-77
2023/02/19 08:46:44;;;;;;;;;;;;;;;;;;4976735;28;20033;-77
2023/02/19 08:49:10;;;;;;;;;;;;;;;;;;4975184;28;19910;-77
2023/02/19 08:51:36;;;;;;;;;;;;;;;;;;4976832;28;19914;-76
2023/02/19 08:54:02;;;;;;;;;;;;;;;;;;4974293;28;20379;-77
2023/02/19 08:56:28;;;;;;;;;;;;;;;;;;4975554;28;20393;-78
2023/02/19 08:58:54;;;;;;;;;;;;;;;;;;4975706;28;19953;-76
2023/02/19 09:01:20;;;;;;;;;;;;;;;;;;4975908;28;19910;-78
2023/02/19 09:03:46;;;;;;;;;;;;;;;;;;4977136;28;20660;-77
2023/02/19 09:06:11;;;;;;;;;;;;;;;;;;4978131;28;19910;-78
2023/02/19 09:08:37;;;;;;;;;;;;;;;;;;4978610;28;20001;-77
2023/02/19 09:11:03;;;;;;;;;;;;;;;;;;4979572;28;19910;-77
2023/02/19 09:13:29;;;;;;;;;;;;;;;;;;4980739;28;19917;-77
2023/02/19 09:15:56;;;;;;;;;;;;;;;;;;4980685;28;20346;-79
2023/02/19 09:18:21;;;;;;;;;;;;;;;;;;4979541;28;19917;-77
2023/02/19 09:20:47;;;;;;;;;;;;;;;;;;4979521;28;19911;-76
2023/02/19 09:23:13;;;;;;;;;;;;;;;;;;4979286;28;20287;-77
2023/02/19 09:25:39;;;;;;;;;;;;;;;;;;4979368;28;19911;-76
2023/02/19 09:28:05;;;;;;;;;;;;;;;;;;4978652;28;19958;-76
2023/02/19 09:30:31;;;;;;;;;;;;;;;;;;4979582;28;20004;-76
2023/02/19 09:32:57;;;;;;;;;;;;;;;;;;4979244;28;20012;-77
2023/02/19 09:35:23;;;;;;;;;;;;;;;;;;4979615;28;19910;-78
2023/02/19 09:37:49;;;;;;;;;;;;;;;;;;4979070;28;20450;-78
2023/02/19 09:40:20;;;;;;;;;;;;;;;;;;4979607;28;19945;-78
2023/02/19 09:42:46;;;;;;;;;;;;;;;;;;4978483;28;19914;-78
2023/02/19 09:45:11;;;;;;;;;;;;;;;;;;4979537;28;19917;-77
2023/02/19 09:47:37;;;;;;;;;;;;;;;;;;4980191;28;19911;-77
2023/02/19 09:50:03;;;;;;;;;;;;;;;;;;4979839;28;19917;-76
2023/02/19 09:52:29;;;;;;;;;;;;;;;;;;4979083;28;19921;-79
2023/02/19 09:54:58;;;;;;;;;;;;;;;;;;4977784;28;19914;-78
2023/02/19 09:57:24;;;;;;;;;;;;;;;;;;4978175;28;19917;-76
2023/02/19 09:59:50;;;;;;;;;;;;;;;;;;4979368;28;19997;-78
2023/02/19 10:02:16;;;;;;;;;;;;;;;;;;4979329;28;20361;-77
2023/02/19 10:04:42;;;;;;;;;;;;;;;;;;4978859;28;20008;-78
2023/02/19 10:07:08;;;;;;;;;;;;;;;;;;4982747;28;19977;-76
2023/02/19 10:09:34;;;;;;;;;;;;;;;;;;4984421;28;19914;-81
2023/02/19 10:12:00;;;;;;;;;;;;;;;;;;4986008;28;19910;-78
2023/02/19 10:14:25;;;;;;;;;;;;;;;;;;4983308;28;19969;-76
2023/02/19 10:16:51;;;;;;;;;;;;;;;;;;4984516;28;19910;-78
2023/02/19 10:19:17;;;;;;;;;;;;;;;;;;4986447;28;19917;-77
2023/02/19 10:21:43;;;;;;;;;;;;;;;;;;4983866;28;19911;-78
2023/02/19 10:24:09;;;;;;;;;;;;;;;;;;4983490;28;20360;-78
2023/02/19 10:26:35;;;;;;;;;;;;;;;;;;4982281;28;19918;-77
2023/02/19 10:29:01;;;;;;;;;;;;;;;;;;4982771;28;19910;-78
2023/02/19 10:31:27;;;;;;;;;;;;;;;;;;4984731;28;19945;-77
2023/02/19 10:33:53;;;;;;;;;;;;;;;;;;4985137;28;19942;-76
2023/02/19 10:36:19;;;;;;;;;;;;;;;;;;4984739;28;19970;-77
2023/02/19 10:38:45;;;;;;;;;;;;;;;;;;4985280;28;19994;-80
2023/02/19 10:41:11;;;;;;;;;;;;;;;;;;4984629;28;19910;-79
2023/02/19 10:43:38;;;;;;;;;;;;;;;;;;4985809;28;19906;-77
2023/02/19 10:46:04;;;;;;;;;;;;;;;;;;4984102;28;19949;-76
2023/02/19 10:48:30;;;;;;;;;;;;;;;;;;4984327;28;20272;-78
2023/02/19 10:50:57;;;;;;;;;;;;;;;;;;4985014;28;20017;-77
2023/02/19 10:53:23;;;;;;;;;;;;;;;;;;4982706;28;19918;-78
2023/02/19 10:55:49;;;;;;;;;;;;;;;;;;4983231;28;19941;-79
2023/02/19 10:58:15;;;;;;;;;;;;;;;;;;4982801;28;19910;-78
2023/02/19 11:00:40;;;;;;;;;;;;;;;;;;4982922;28;19910;-77
2023/02/19 11:03:08;;;;;;;;;;;;;;;;;;4984424;28;19910;-78
2023/02/19 11:05:34;;;;;;;;;;;;;;;;;;4983429;28;19910;-76
2023/02/19 11:08:00;;;;;;;;;;;;;;;;;;4981135;28;20005;-77
2023/02/19 11:10:26;;;;;;;;;;;;;;;;;;4977167;28;20421;-77
2023/02/19 11:12:52;;;;;;;;;;;;;;;;;;4977407;28;19918;-77
2023/02/19 11:15:18;;;;;;;;;;;;;;;;;;4978422;28;20398;-76
2023/02/19 11:17:44;;;;;;;;;;;;;;;;;;4983620;28;19910;-76
2023/02/19 11:20:11;;;;;;;;;;;;;;;;;;4979859;28;19965;-78
2023/02/19 11:22:37;;;;;;;;;;;;;;;;;;4981520;28;19910;-78
2023/02/19 11:25:03;;;;;;;;;;;;;;;;;;4977855;28;19965;-78
2023/02/19 11:27:29;;;;;;;;;;;;;;;;;;4982897;28;19910;-78
2023/02/19 11:29:54;;;;;;;;;;;;;;;;;;4984207;28;19910;-76
2023/02/19 11:32:20;;;;;;;;;;;;;;;;;;4983861;28;20005;-77
2023/02/19 11:34:46;;;;;;;;;;;;;;;;;;4983667;28;19920;-78
2023/02/19 11:37:12;;;;;;;;;;;;;;;;;;4984429;28;19910;-78
2023/02/19 11:39:38;;;;;;;;;;;;;;;;;;4982195;28;19960;-78
2023/02/19 11:42:04;;;;;;;;;;;;;;;;;;4982999;28;19917;-78
2023/02/19 11:44:30;;;;;;;;;;;;;;;;;;4983645;28;19910;-78
2023/02/19 11:46:56;;;;;;;;;;;;;;;;;;4981585;28;19914;-78
2023/02/19 11:49:22;;;;;;;;;;;;;;;;;;4983374;28;19910;-79
2023/02/19 11:51:47;;;;;;;;;;;;;;;;;;4983745;28;19933;-76
2023/02/19 11:54:13;;;;;;;;;;;;;;;;;;4980965;28;19914;-76
2023/02/19 11:56:39;;;;;;;;;;;;;;;;;;4982270;28;19914;-78
2023/02/19 11:59:05;;;;;;;;;;;;;;;;;;4981571;28;20427;-78
2023/02/19 12:01:31;;;;;;;;;;;;;;;;;;4980999;28;19932;-79
2023/02/19 12:03:57;;;;;;;;;;;;;;;;;;4980888;28;19911;-78
2023/02/19 12:06:23;;;;;;;;;;;;;;;;;;4979799;28;19961;-78
2023/02/19 12:08:49;;;;;;;;;;;;;;;;;;4981360;28;19995;-78
2023/02/19 12:11:15;;;;;;;;;;;;;;;;;;4981997;28;19910;-78
2023/02/19 12:13:41;;;;;;;;;;;;;;;;;;4980997;28;19925;-79
2023/02/19 12:16:07;;;;;;;;;;;;;;;;;;4979726;28;19910;-78
2023/02/19 12:18:32;;;;;;;;;;;;;;;;;;4982215;28;19973;-77
2023/02/19 12:20:58;;;;;;;;;;;;;;;;;;4983072;28;19914;-79
2023/02/19 12:23:24;;;;;;;;;;;;;;;;;;4981264;28;20013;-77
2023/02/19 12:25:50;;;;;;;;;;;;;;;;;;4981679;28;20004;-78
2023/02/19 12:28:16;;;;;;;;;;;;;;;;;;4982772;28;20384;-77
2023/02/19 12:30:42;;;;;;;;;;;;;;;;;;4982226;28;19910;-79
2023/02/19 12:33:08;;;;;;;;;;;;;;;;;;4984119;28;19978;-79
2023/02/19 12:35:34;;;;;;;;;;;;;;;;;;4983596;28;19957;-78
2023/02/19 12:38:00;;;;;;;;;;;;;;;;;;4982841;28;19910;-79
2023/02/19 12:40:26;;;;;;;;;;;;;;;;;;4983692;28;19976;-79
2023/02/19 12:42:52;;;;;;;;;;;;;;;;;;4987636;28;19910;-78
2023/02/19 12:45:19;;;;;;;;;;;;;;;;;;4985904;28;19921;-78
2023/02/19 12:47:44;;;;;;;;;;;;;;;;;;4986293;28;19910;-78
2023/02/19 12:50:10;;;;;;;;;;;;;;;;;;4985446;28;19911;-79
2023/02/19 12:52:39;;;;;;;;;;;;;;;;;;4985494;28;20286;-79
2023/02/19 12:55:05;;;;;;;;;;;;;;;;;;4985269;28;19916;-78
2023/02/19 12:57:30;;;;;;;;;;;;;;;;;;4985274;28;19992;-77
2023/02/19 12:59:58;;;;;;;;;;;;;;;;;;4987312;28;19920;-82
2023/02/19 13:02:24;;;;;;;;;;;;;;;;;;4985729;28;19910;-78
2023/02/19 13:04:50;;;;;;;;;;;;;;;;;;4986546;28;19910;-78
2023/02/19 13:07:16;;;;;;;;;;;;;;;;;;4986092;28;20295;-78
2023/02/19 13:09:42;;;;;;;;;;;;;;;;;;4984834;28;19911;-78
2023/02/19 13:12:08;;;;;;;;;;;;;;;;;;4985721;28;19919;-78
2023/02/19 13:14:34;;;;;;;;;;;;;;;;;;4986434;28;19918;-76
2023/02/19 13:17:00;;;;;;;;;;;;;;;;;;4985264;28;19910;-75
2023/02/19 13:19:26;;;;;;;;;;;;;;;;;;4985063;28;19914;-75
2023/02/19 13:24:36;;;;;;;;;;;;;;;;;;4985488;28;20001;-77
2023/02/19 13:27:02;;;;;;;;;;;;;;;;;;4981223;28;19953;-76
2023/02/19 13:29:28;;;;;;;;;;;;;;;;;;4980947;28;20433;-76
2023/02/19 13:31:54;;;;;;;;;;;;;;;;;;4983453;28;19911;-78
2023/02/19 13:34:20;;;;;;;;;;;;;;;;;;4983134;28;19914;-78
2023/02/19 13:36:47;;;;;;;;;;;;;;;;;;4983403;28;19914;-77
2023/02/19 13:39:13;;;;;;;;;;;;;;;;;;4982121;28;19910;-77
2023/02/19 13:41:39;;;;;;;;;;;;;;;;;;4981440;28;20422;-77
2023/02/19 13:44:05;;;;;;;;;;;;;;;;;;4984659;28;19917;-78
2023/02/19 13:46:31;;;;;;;;;;;;;;;;;;4985784;28;20296;-77
2023/02/19 13:48:57;;;;;;;;;;;;;;;;;;4986879;28;19977;-77
2023/02/19 13:51:23;;;;;;;;;;;;;;;;;;4984703;28;19914;-78
2023/02/19 13:53:50;;;;;;;;;;;;;;;;;;4984981;28;19914;-76
2023/02/19 13:56:16;;;;;;;;;;;;;;;;;;4984905;28;20307;-78
2023/02/19 13:58:42;;;;;;;;;;;;;;;;;;4994413;28;19914;-77
2023/02/19 14:01:08;;;;;;;;;;;;;;;;;;5005610;28;19981;-77
2023/02/19 14:03:34;;;;;;;;;;;;;;;;;;5003869;28;19910;-76
2023/02/19 14:05:59;;;;;;;;;;;;;;;;;;5005150;28;19910;-78
2023/02/19 14:08:25;;;;;;;;;;;;;;;;;;5004256;28;19920;-77
2023/02/19 14:10:51;;;;;;;;;;;;;;;;;;5005265;28;19953;-78
2023/02/19 14:13:17;;;;;;;;;;;;;;;;;;5001035;28;19941;-78
2023/02/19 14:15:43;;;;;;;;;;;;;;;;;;4998686;28;20367;-77
2023/02/19 14:18:09;;;;;;;;;;;;;;;;;;4997258;28;19917;-76
2023/02/19 14:20:35;;;;;;;;;;;;;;;;;;4996924;28;19912;-75
2023/02/19 14:23:01;;;;;;;;;;;;;;;;;;4996882;28;19909;-77
2023/02/19 14:25:30;;;;;;;;;;;;;;;;;;4999558;28;19910;-75
2023/02/19 14:27:56;;;;;;;;;;;;;;;;;;4997283;28;19945;-76
2023/02/19 14:30:21;;;;;;;;;;;;;;;;;;4997370;28;19910;-76
2023/02/19 14:32:47;;;;;;;;;;;;;;;;;;4996989;28;19957;-77
2023/02/19 14:35:13;;;;;;;;;;;;;;;;;;4997849;28;19996;-77
2023/02/19 14:37:39;;;;;;;;;;;;;;;;;;4996766;28;19910;-77
2023/02/19 14:40:05;;;;;;;;;;;;;;;;;;4997079;28;19914;-77
2023/02/19 14:42:32;;;;;;;;;;;;;;;;;;4996900;28;19916;-78
2023/02/19 14:44:58;;;;;;;;;;;;;;;;;;4996555;28;20553;-76
2023/02/19 14:47:24;;;;;;;;;;;;;;;;;;4996419;28;20389;-77
2023/02/19 14:49:50;;;;;;;;;;;;;;;;;;4996925;28;19950;-77
2023/02/19 14:52:16;;;;;;;;;;;;;;;;;;4997346;28;19944;-76
2023/02/19 14:54:42;;;;;;;;;;;;;;;;;;4996489;28;19917;-75
2023/02/19 14:57:08;;;;;;;;;;;;;;;;;;4996212;28;19910;-75
2023/02/19 14:59:34;;;;;;;;;;;;;;;;;;4996387;28;19917;-74
2023/02/19 15:02:00;;;;;;;;;;;;;;;;;;4995817;28;20262;-77
2023/02/19 15:04:26;;;;;;;;;;;;;;;;;;4994300;28;20029;-73
2023/02/19 15:06:52;;;;;;;;;;;;;;;;;;4994412;28;19909;-75
2023/02/19 15:09:18;;;;;;;;;;;;;;;;;;4996973;28;19910;-77
2023/02/19 15:11:43;;;;;;;;;;;;;;;;;;4996567;28;20309;-76
2023/02/19 15:14:09;;;;;;;;;;;;;;;;;;4993975;28;19973;-77
2023/02/19 15:16:35;;;;;;;;;;;;;;;;;;4995503;28;19969;-77
2023/02/19 15:19:01;;;;;;;;;;;;;;;;;;4995024;28;20359;-77
2023/02/19 15:21:27;;;;;;;;;;;;;;;;;;4996756;28;19910;-77
2023/02/19 15:23:53;;;;;;;;;;;;;;;;;;4995799;28;19916;-75
2023/02/19 15:26:19;;;;;;;;;;;;;;;;;;4996203;28;19910;-76
2023/02/19 15:28:45;;;;;;;;;;;;;;;;;;4995444;28;20323;-76
2023/02/19 15:31:11;;;;;;;;;;;;;;;;;;4994004;28;19916;-78
2023/02/19 15:33:37;;;;;;;;;;;;;;;;;;4994386;28;19918;-76
2023/02/19 15:36:03;;;;;;;;;;;;;;;;;;4993856;28;19917;-77
2023/02/19 15:38:28;;;;;;;;;;;;;;;;;;4993430;28;19917;-77
2023/02/19 15:40:57;;;;;;;;;;;;;;;;;;4995850;28;19910;-78
2023/02/19 15:43:23;;;;;;;;;;;;;;;;;;4994693;28;20004;-76
2023/02/19 15:45:49;;;;;;;;;;;;;;;;;;4996119;28;19910;-76
2023/02/19 15:48:15;;;;;;;;;;;;;;;;;;4995474;28;19910;-76
2023/02/19 15:50:42;;;;;;;;;;;;;;;;;;4995431;28;19976;-77
2023/02/19 15:53:08;;;;;;;;;;;;;;;;;;4998434;28;19962;-77
2023/02/19 15:55:34;;;;;;;;;;;;;;;;;;4994956;28;19913;-77
2023/02/19 15:58:00;;;;;;;;;;;;;;;;;;4995474;28;19949;-77
2023/02/19 16:00:26;;;;;;;;;;;;;;;;;;4998466;28;20005;-77
2023/02/19 16:02:52;;;;;;;;;;;;;;;;;;4996587;28;20338;-78
2023/02/19 16:05:18;;;;;;;;;;;;;;;;;;4995904;28;19964;-78
2023/02/19 16:07:44;;;;;;;;;;;;;;;;;;4996172;28;19909;-78
2023/02/19 16:10:10;;;;;;;;;;;;;;;;;;4997045;28;19999;-76
2023/02/19 16:12:35;;;;;;;;;;;;;;;;;;4997657;28;19928;-77
2023/02/19 16:15:01;;;;;;;;;;;;;;;;;;4999610;28;19914;-77
2023/02/19 16:17:27;;;;;;;;;;;;;;;;;;5001957;28;19918;-76
2023/02/19 16:19:53;;;;;;;;;;;;;;;;;;5000701;28;19910;-79
2023/02/19 16:22:19;;;;;;;;;;;;;;;;;;5002192;28;19910;-78
2023/02/19 16:24:45;;;;;;;;;;;;;;;;;;5001917;28;20590;-77
2023/02/19 16:27:11;;;;;;;;;;;;;;;;;;5001390;28;19910;-79
2023/02/19 16:29:37;;;;;;;;;;;;;;;;;;5000742;28;19909;-80
2023/02/19 16:32:03;;;;;;;;;;;;;;;;;;5000607;28;20386;-78
2023/02/19 16:34:29;;;;;;;;;;;;;;;;;;5000701;28;20396;-78
2023/02/19 16:36:55;;;;;;;;;;;;;;;;;;5002699;28;19909;-77
2023/02/19 16:39:21;;;;;;;;;;;;;;;;;;5000552;28;19933;-76
2023/02/19 16:41:47;;;;;;;;;;;;;;;;;;4998529;28;19914;-78
2023/02/19 16:44:12;;;;;;;;;;;;;;;;;;5001064;28;19910;-76
2023/02/19 16:46:39;;;;;;;;;;;;;;;;;;4997574;28;19964;-77
2023/02/19 16:49:06;;;;;;;;;;;;;;;;;;4999217;28;19910;-77
2023/02/19 16:51:31;;;;;;;;;;;;;;;;;;5000091;28;19917;-78
2023/02/19 16:53:57;;;;;;;;;;;;;;;;;;4999471;28;19913;-79
2023/02/19 16:56:24;;;;;;;;;;;;;;;;;;4999851;28;20263;-79
2023/02/19 16:58:50;;;;;;;;;;;;;;;;;;4998057;28;19949;-77
2023/02/19 17:01:15;;;;;;;;;;;;;;;;;;4998672;28;19917;-77
2023/02/19 17:03:41;;;;;;;;;;;;;;;;;;4998213;28;19953;-76
2023/02/19 17:06:07;;;;;;;;;;;;;;;;;;4998737;28;20386;-76
2023/02/19 17:08:33;;;;;;;;;;;;;;;;;;4997235;28;20363;-78
2023/02/19 17:10:59;;;;;;;;;;;;;;;;;;4998296;28;19916;-75
2023/02/19 17:13:25;;;;;;;;;;;;;;;;;;4999155;28;19924;-76
2023/02/19 17:15:51;;;;;;;;;;;;;;;;;;4998655;28;19910;-77